EDT,Max TemperatureF,Mean TemperatureF,Min TemperatureF,Max Dew PointF,MeanDew PointF,Min DewpointF,Max Humidity, Mean Humidity, Min Humidity, Max Sea Level PressureIn, Mean Sea Level PressureIn, Min Sea Level PressureIn, Max VisibilityMiles, Mean VisibilityMiles, Min VisibilityMiles, Max Wind SpeedMPH, Mean Wind SpeedMPH, Max Gust SpeedMPH,PrecipitationIn, CloudCover, Events, WindDirDegrees
2012-9-1,86,76,67,73,70,65,91,82,53,30.18,30.13,30.06,10,8,4,8,1,,0.02,2,Rain-Thunderstorm,188
2012-9-2,84,77,70,72,70,68,93,84,61,30.12,30.06,29.98,10,7,0,9,1,,0.15,6,Fog-Rain-Thunderstorm,43
2012-9-3,83,78,72,72,70,68,91,81,64,30.07,30.03,29.99,10,9,4,12,1,,0.06,5,Rain,123
2012-9-4,85,78,70,72,69,66,93,78,55,30.03,29.96,29.88,10,8,2,13,2,20,0.01,6,Rain,205
2012-9-5,91,80,70,72,68,61,92,72,37,29.92,29.87,29.83,10,9,4,7,0,,0.02,4,Rain-Thunderstorm,285
2012-9-6,91,80,68,70,66,60,91,71,35,29.97,29.93,29.89,10,8,4,7,0,,0.00,2,,287
2012-9-7,90,76,62,68,63,57,93,69,33,30.02,29.95,29.84,10,7,1,10,1,,0.00,0,,150
2012-9-8,79,69,57,68,61,50,86,72,59,29.93,29.78,29.70,10,10,2,15,4,20,0.30,3,Rain,197
2012-9-9,75,62,49,57,50,43,94,69,32,30.06,29.96,29.92,10,8,0,16,2,23,0.00,4,Fog,299
2012-9-10,73,60,48,55,47,39,94,67,30,30.25,30.15,30.06,10,8,0,15,2,22,0.00,2,Fog,318
2012-9-11,79,61,43,54,45,32,93,66,21,30.36,30.30,30.25,10,10,2,6,1,,0.00,0,,84
2012-9-12,85,64,43,59,51,41,93,69,29,30.39,30.34,30.28,10,9,2,9,1,,0.00,0,,130
2012-9-13,86,67,48,58,53,46,94,69,31,30.41,30.34,30.27,10,8,0,10,1,,0.00,1,Fog,117
2012-9-14,87,68,49,59,52,47,93,66,27,30.31,30.23,30.14,10,10,4,15,1,22,0.00,1,,295
2012-9-15,78,63,48,59,47,40,86,56,28,30.32,30.24,30.17,10,10,10,10,3,,0.00,2,,9
2012-9-16,75,58,42,56,49,40,92,75,44,30.22,30.17,30.09,10,9,2,4,0,,0.00,1,,310
2012-9-17,80,62,44,61,53,42,94,79,46,30.14,30.06,29.95,10,7,0,10,1,18,0.07,4,Fog-Rain,158
2012-9-18,72,65,58,68,61,48,93,85,61,29.94,29.76,29.64,10,8,2,15,1,21,1.37,7,Rain,321
2012-9-19,70,58,44,52,43,34,92,64,27,30.21,30.11,29.94,10,10,3,8,1,,0.00,1,,13
2012-9-20,77,60,42,58,50,40,93,75,43,30.21,30.12,30.03,10,9,2,12,1,,0.00,1,,132
2012-9-21,83,67,51,64,55,50,94,75,32,30.07,30.01,29.93,10,7,0,7,0,,0.00,3,Fog,142
2012-9-22,81,70,58,60,53,37,92,59,34,30.07,29.90,29.84,10,10,5,18,6,26,0.00,4,,215
2012-9-23,65,53,41,45,39,33,91,57,31,30.21,30.15,30.07,10,10,10,14,5,21,0.00,3,,313
2012-9-24,68,53,38,45,39,32,93,67,26,30.28,30.21,30.13,10,10,7,13,1,10,0.00,1,Thunderstorm,268
2012-9-25,72,54,35,55,44,33,93,73,37,30.21,30.16,30.08,10,10,7,12,1,16,0.00,2,Rain,173
2012-9-26,82,68,54,62,57,52,93,76,38,30.20,30.13,30.09,10,8,2,14,1,22,0.14,3,Rain-Thunderstorm,263
2012-9-27,81,70,60,64,61,58,93,78,49,30.20,30.15,30.09,10,8,2,7,1,,0.01,2,Rain-Thunderstorm,121
2012-9-28,73,66,58,64,57,50,94,77,52,30.13,30.08,30.03,10,7,0,7,1,,0.28,5,Fog-Rain,352
2012-9-29,68,57,46,51,47,43,94,73,43,30.09,30.03,29.95,10,7,0,7,1,,0.01,2,Fog,94
2012-9-30,72,56,41,52,45,40,93,75,32,29.97,29.91,29.82,10,8,1,14,1,21,0.05,4,Rain-Thunderstorm,236